sensor_id;sensor_type;location;lat;lon;timestamp;pressure;altitude;pressure_sealevel;temperature;humidity
33454;BME280;39400;49.744;7.012;2023-03-30T00:01:00;95430.53;;;11.88;85.49
33454;BME280;39400;49.744;7.012;2023-03-30T00:03:26;95424.59;;;11.90;85.47
33454;BME280;39400;49.744;7.012;2023-03-30T00:05:52;95420.13;;;12.00;85.76
33454;BME280;39400;49.744;7.012;2023-03-30T00:08:18;95411.22;;;12.16;84.42
33454;BME280;39400;49.744;7.012;2023-03-30T00:10:44;95416.59;;;12.26;83.90
33454;BME280;39400;49.744;7.012;2023-03-30T00:13:11;95423.91;;;12.36;83.35
33454;BME280;39400;49.744;7.012;2023-03-30T00:15:36;95418.03;;;12.34;83.12
33454;BME280;39400;49.744;7.012;2023-03-30T00:18:02;95421.88;;;12.41;83.02
33454;BME280;39400;49.744;7.012;2023-03-30T00:20:27;95414.56;;;12.54;83.12
33454;BME280;39400;49.744;7.012;2023-03-30T00:22:52;95411.19;;;12.66;83.19
33454;BME280;39400;49.744;7.012;2023-03-30T00:25:18;95420.56;;;12.72;83.59
33454;BME280;39400;49.744;7.012;2023-03-30T00:27:44;95415.63;;;12.83;82.75
33454;BME280;39400;49.744;7.012;2023-03-30T00:30:13;95423.44;;;12.89;83.29
33454;BME280;39400;49.744;7.012;2023-03-30T00:32:39;95414.66;;;12.94;83.42
33454;BME280;39400;49.744;7.012;2023-03-30T00:35:04;95420.94;;;12.94;83.56
33454;BME280;39400;49.744;7.012;2023-03-30T00:37:30;95412.13;;;13.03;82.95
33454;BME280;39400;49.744;7.012;2023-03-30T00:39:56;95425.41;;;13.08;83.41
33454;BME280;39400;49.744;7.012;2023-03-30T00:42:21;95429.97;;;13.18;82.75
33454;BME280;39400;49.744;7.012;2023-03-30T00:47:34;95435.38;;;13.25;82.88
33454;BME280;39400;49.744;7.012;2023-03-30T00:50:02;95440.16;;;13.21;82.82
33454;BME280;39400;49.744;7.012;2023-03-30T00:52:27;95444.47;;;13.22;82.71
33454;BME280;39400;49.744;7.012;2023-03-30T00:54:55;95442.44;;;13.26;82.55
33454;BME280;39400;49.744;7.012;2023-03-30T00:57:23;95459.84;;;13.23;82.93
33454;BME280;39400;49.744;7.012;2023-03-30T00:59:51;95445.44;;;13.12;83.58
33454;BME280;39400;49.744;7.012;2023-03-30T01:02:18;95442.81;;;13.05;85.02
33454;BME280;39400;49.744;7.012;2023-03-30T01:04:45;95441.53;;;12.90;86.91
33454;BME280;39400;49.744;7.012;2023-03-30T01:07:10;95447.31;;;12.75;88.26
33454;BME280;39400;49.744;7.012;2023-03-30T01:09:36;95446.63;;;12.68;88.92
33454;BME280;39400;49.744;7.012;2023-03-30T01:12:02;95440.69;;;12.69;88.82
33454;BME280;39400;49.744;7.012;2023-03-30T01:14:27;95432.41;;;12.69;88.97
33454;BME280;39400;49.744;7.012;2023-03-30T01:17:02;95430.88;;;12.68;88.55
33454;BME280;39400;49.744;7.012;2023-03-30T01:28:16;95462.63;;;12.53;89.29
33454;BME280;39400;49.744;7.012;2023-03-30T01:31:09;95458.69;;;12.54;89.00
33454;BME280;39400;49.744;7.012;2023-03-30T01:47:37;95427.28;;;12.48;89.18
33454;BME280;39400;49.744;7.012;2023-03-30T01:50:17;95432.41;;;12.46;89.52
33454;BME280;39400;49.744;7.012;2023-03-30T01:52:52;95441.47;;;12.46;88.35
33454;BME280;39400;49.744;7.012;2023-03-30T01:55:28;95414.97;;;12.52;88.81
33454;BME280;39400;49.744;7.012;2023-03-30T01:58:02;95420.50;;;12.52;88.47
33454;BME280;39400;49.744;7.012;2023-03-30T02:00:30;95435.81;;;12.53;88.99
33454;BME280;39400;49.744;7.012;2023-03-30T02:03:08;95450.03;;;12.52;89.12
33454;BME280;39400;49.744;7.012;2023-03-30T02:05:36;95461.34;;;12.61;88.78
33454;BME280;39400;49.744;7.012;2023-03-30T02:08:07;95466.84;;;12.61;88.80
33454;BME280;39400;49.744;7.012;2023-03-30T02:10:36;95490.19;;;12.53;88.98
33454;BME280;39400;49.744;7.012;2023-03-30T02:13:04;95496.66;;;12.43;89.60
33454;BME280;39400;49.744;7.012;2023-03-30T02:15:40;95496.25;;;12.44;89.40
33454;BME280;39400;49.744;7.012;2023-03-30T02:18:06;95496.66;;;12.43;90.50
33454;BME280;39400;49.744;7.012;2023-03-30T02:20:33;95504.22;;;12.38;91.27
33454;BME280;39400;49.744;7.012;2023-03-30T02:23:00;95497.09;;;12.41;90.83
33454;BME280;39400;49.744;7.012;2023-03-30T02:25:26;95490.41;;;12.38;91.01
33454;BME280;39400;49.744;7.012;2023-03-30T02:27:52;95462.03;;;12.42;91.31
33454;BME280;39400;49.744;7.012;2023-03-30T02:30:18;95461.97;;;12.45;91.34
33454;BME280;39400;49.744;7.012;2023-03-30T02:32:51;95458.38;;;12.48;91.30
33454;BME280;39400;49.744;7.012;2023-03-30T02:43:25;95417.31;;;12.54;90.62
33454;BME280;39400;49.744;7.012;2023-03-30T02:46:21;95372.25;;;12.41;91.67
33454;BME280;39400;49.744;7.012;2023-03-30T02:52:38;95328.78;;;12.48;91.50
33454;BME280;39400;49.744;7.012;2023-03-30T02:55:05;95315.59;;;12.36;91.58
33454;BME280;39400;49.744;7.012;2023-03-30T02:57:53;95329.03;;;12.34;91.49
33454;BME280;39400;49.744;7.012;2023-03-30T03:01:03;95319.75;;;12.24;91.96
33454;BME280;39400;49.744;7.012;2023-03-30T03:03:55;95332.09;;;12.16;92.78
33454;BME280;39400;49.744;7.012;2023-03-30T03:06:21;95327.03;;;12.11;92.75
33454;BME280;39400;49.744;7.012;2023-03-30T03:08:52;95329.47;;;12.09;93.23
33454;BME280;39400;49.744;7.012;2023-03-30T03:11:22;95320.75;;;12.10;93.37
33454;BME280;39400;49.744;7.012;2023-03-30T03:13:48;95308.00;;;12.20;93.66
33454;BME280;39400;49.744;7.012;2023-03-30T03:16:14;95294.63;;;12.19;93.75
33454;BME280;39400;49.744;7.012;2023-03-30T03:18:54;95295.41;;;12.19;93.92
33454;BME280;39400;49.744;7.012;2023-03-30T03:21:19;95299.38;;;12.18;94.06
33454;BME280;39400;49.744;7.012;2023-03-30T03:23:45;95309.78;;;12.07;94.39
33454;BME280;39400;49.744;7.012;2023-03-30T03:26:10;95314.59;;;12.03;94.11
33454;BME280;39400;49.744;7.012;2023-03-30T03:28:36;95311.47;;;12.01;93.98
33454;BME280;39400;49.744;7.012;2023-03-30T03:31:05;95320.22;;;11.96;95.06
33454;BME280;39400;49.744;7.012;2023-03-30T03:33:32;95317.81;;;11.98;94.88
33454;BME280;39400;49.744;7.012;2023-03-30T03:36:20;95287.88;;;12.00;95.27
33454;BME280;39400;49.744;7.012;2023-03-30T03:38:49;95266.06;;;12.09;94.77
33454;BME280;39400;49.744;7.012;2023-03-30T03:41:15;95287.75;;;12.07;93.71
33454;BME280;39400;49.744;7.012;2023-03-30T03:43:42;95312.44;;;12.14;92.96
33454;BME280;39400;49.744;7.012;2023-03-30T03:46:07;95313.56;;;12.17;93.03
33454;BME280;39400;49.744;7.012;2023-03-30T03:48:33;95301.78;;;12.16;93.93
33454;BME280;39400;49.744;7.012;2023-03-30T03:50:58;95303.91;;;12.05;94.58
33454;BME280;39400;49.744;7.012;2023-03-30T03:53:26;95300.94;;;11.96;95.84
33454;BME280;39400;49.744;7.012;2023-03-30T03:55:56;95303.81;;;11.88;97.02
33454;BME280;39400;49.744;7.012;2023-03-30T03:58:22;95295.16;;;11.86;97.11
33454;BME280;39400;49.744;7.012;2023-03-30T04:00:49;95297.53;;;11.84;98.33
33454;BME280;39400;49.744;7.012;2023-03-30T04:03:14;95282.75;;;11.75;100.00
33454;BME280;39400;49.744;7.012;2023-03-30T04:05:40;95282.47;;;11.65;100.00
33454;BME280;39400;49.744;7.012;2023-03-30T04:08:06;95256.19;;;11.61;100.00
33454;BME280;39400;49.744;7.012;2023-03-30T04:10:32;95254.63;;;11.60;100.00
33454;BME280;39400;49.744;7.012;2023-03-30T04:13:07;95236.44;;;11.66;100.00
33454;BME280;39400;49.744;7.012;2023-03-30T04:15:58;95259.41;;;11.56;100.00
33454;BME280;39400;49.744;7.012;2023-03-30T04:18:36;95264.56;;;11.54;100.00
33454;BME280;39400;49.744;7.012;2023-03-30T04:21:30;95282.38;;;11.46;100.00
33454;BME280;39400;49.744;7.012;2023-03-30T04:24:16;95284.78;;;11.43;100.00
33454;BME280;39400;49.744;7.012;2023-03-30T04:27:13;95280.94;;;11.37;100.00
33454;BME280;39400;49.744;7.012;2023-03-30T04:30:09;95292.03;;;11.30;100.00
33454;BME280;39400;49.744;7.012;2023-03-30T04:33:13;95296.44;;;11.24;100.00
33454;BME280;39400;49.744;7.012;2023-03-30T04:35:57;95285.91;;;11.19;100.00
33454;BME280;39400;49.744;7.012;2023-03-30T04:38:35;95286.72;;;11.16;100.00
33454;BME280;39400;49.744;7.012;2023-03-30T04:41:14;95291.41;;;11.19;100.00
33454;BME280;39400;49.744;7.012;2023-03-30T04:44:18;95304.97;;;11.03;100.00
33454;BME280;39400;49.744;7.012;2023-03-30T04:47:03;95293.88;;;10.79;100.00
33454;BME280;39400;49.744;7.012;2023-03-30T04:49:49;95272.78;;;10.69;100.00
33454;BME280;39400;49.744;7.012;2023-03-30T04:52:32;95242.38;;;10.49;100.00
33454;BME280;39400;49.744;7.012;2023-03-30T04:55:18;95258.97;;;10.38;100.00
33454;BME280;39400;49.744;7.012;2023-03-30T04:57:57;95302.59;;;10.36;100.00
33454;BME280;39400;49.744;7.012;2023-03-30T05:00:38;95314.41;;;10.33;100.00
33454;BME280;39400;49.744;7.012;2023-03-30T05:03:20;95309.03;;;10.15;100.00
33454;BME280;39400;49.744;7.012;2023-03-30T05:06:04;95285.91;;;10.13;100.00
33454;BME280;39400;49.744;7.012;2023-03-30T05:08:41;95290.28;;;10.07;100.00
33454;BME280;39400;49.744;7.012;2023-03-30T05:11:26;95302.88;;;10.00;100.00
33454;BME280;39400;49.744;7.012;2023-03-30T05:13:59;95311.59;;;9.92;100.00
33454;BME280;39400;49.744;7.012;2023-03-30T05:16:44;95312.44;;;9.85;100.00
33454;BME280;39400;49.744;7.012;2023-03-30T05:19:48;95318.72;;;9.82;100.00
33454;BME280;39400;49.744;7.012;2023-03-30T05:22:41;95303.88;;;9.76;100.00
33454;BME280;39400;49.744;7.012;2023-03-30T05:25:16;95287.41;;;9.72;100.00
33454;BME280;39400;49.744;7.012;2023-03-30T05:27:52;95285.06;;;9.74;100.00
33454;BME280;39400;49.744;7.012;2023-03-30T05:30:44;95305.84;;;9.72;100.00
33454;BME280;39400;49.744;7.012;2023-03-30T05:33:29;95289.41;;;9.68;100.00
33454;BME280;39400;49.744;7.012;2023-03-30T05:36:13;95295.31;;;9.67;100.00
33454;BME280;39400;49.744;7.012;2023-03-30T05:39:00;95315.69;;;9.69;100.00
33454;BME280;39400;49.744;7.012;2023-03-30T05:41:44;95306.66;;;9.69;100.00
33454;BME280;39400;49.744;7.012;2023-03-30T05:44:17;95318.06;;;9.67;100.00
33454;BME280;39400;49.744;7.012;2023-03-30T05:47:01;95317.28;;;9.67;100.00
33454;BME280;39400;49.744;7.012;2023-03-30T05:49:39;95312.53;;;9.71;100.00
33454;BME280;39400;49.744;7.012;2023-03-30T05:52:17;95307.78;;;9.79;100.00
33454;BME280;39400;49.744;7.012;2023-03-30T05:55:21;95318.72;;;9.82;100.00
33454;BME280;39400;49.744;7.012;2023-03-30T05:58:04;95313.22;;;9.86;100.00
33454;BME280;39400;49.744;7.012;2023-03-30T06:00:38;95296.72;;;9.86;100.00
33454;BME280;39400;49.744;7.012;2023-03-30T06:03:13;95293.63;;;9.84;100.00
33454;BME280;39400;49.744;7.012;2023-03-30T06:05:39;95266.13;;;9.87;100.00
33454;BME280;39400;49.744;7.012;2023-03-30T06:08:05;95265.28;;;9.94;100.00
33454;BME280;39400;49.744;7.012;2023-03-30T06:10:31;95261.69;;;10.00;100.00
33454;BME280;39400;49.744;7.012;2023-03-30T06:12:56;95281.69;;;10.05;100.00
33454;BME280;39400;49.744;7.012;2023-03-30T06:15:32;95288.72;;;10.06;100.00
33454;BME280;39400;49.744;7.012;2023-03-30T06:18:07;95312.25;;;10.07;100.00
33454;BME280;39400;49.744;7.012;2023-03-30T06:20:35;95320.50;;;10.07;100.00
33454;BME280;39400;49.744;7.012;2023-03-30T06:23:01;95336.59;;;10.05;100.00
33454;BME280;39400;49.744;7.012;2023-03-30T06:25:27;95328.78;;;9.99;100.00
33454;BME280;39400;49.744;7.012;2023-03-30T06:27:54;95328.75;;;10.03;100.00
33454;BME280;39400;49.744;7.012;2023-03-30T06:30:19;95328.00;;;9.99;100.00
33454;BME280;39400;49.744;7.012;2023-03-30T06:32:49;95320.97;;;9.98;100.00
33454;BME280;39400;49.744;7.012;2023-03-30T06:35:33;95320.56;;;9.99;100.00
33454;BME280;39400;49.744;7.012;2023-03-30T06:37:59;95321.28;;;10.04;100.00
33454;BME280;39400;49.744;7.012;2023-03-30T06:40:24;95327.91;;;10.10;100.00
33454;BME280;39400;49.744;7.012;2023-03-30T06:42:51;95337.34;;;10.09;100.00
33454;BME280;39400;49.744;7.012;2023-03-30T06:45:37;95344.41;;;10.10;100.00
33454;BME280;39400;49.744;7.012;2023-03-30T06:48:03;95354.59;;;10.13;100.00
33454;BME280;39400;49.744;7.012;2023-03-30T06:50:31;95352.59;;;10.13;100.00
33454;BME280;39400;49.744;7.012;2023-03-30T06:53:02;95345.16;;;10.14;100.00
33454;BME280;39400;49.744;7.012;2023-03-30T06:55:34;95346.66;;;10.22;100.00
33454;BME280;39400;49.744;7.012;2023-03-30T06:57:59;95341.53;;;10.24;100.00
33454;BME280;39400;49.744;7.012;2023-03-30T07:00:25;95320.75;;;10.27;100.00
33454;BME280;39400;49.744;7.012;2023-03-30T07:03:09;95308.19;;;10.26;100.00
33454;BME280;39400;49.744;7.012;2023-03-30T07:05:51;95299.47;;;10.34;100.00
33454;BME280;39400;49.744;7.012;2023-03-30T07:08:34;95290.75;;;10.43;100.00
33454;BME280;39400;49.744;7.012;2023-03-30T07:10:59;95304.88;;;10.41;100.00
33454;BME280;39400;49.744;7.012;2023-03-30T07:13:28;95321.38;;;10.41;100.00
33454;BME280;39400;49.744;7.012;2023-03-30T07:15:54;95337.06;;;10.44;100.00
33454;BME280;39400;49.744;7.012;2023-03-30T07:18:19;95339.34;;;10.53;100.00
33454;BME280;39400;49.744;7.012;2023-03-30T07:20:45;95335.34;;;10.58;100.00
33454;BME280;39400;49.744;7.012;2023-03-30T07:23:14;95329.69;;;10.72;100.00
33454;BME280;39400;49.744;7.012;2023-03-30T07:25:40;95324.19;;;10.72;100.00
33454;BME280;39400;49.744;7.012;2023-03-30T07:28:12;95328.88;;;10.75;100.00
33454;BME280;39400;49.744;7.012;2023-03-30T07:30:37;95333.56;;;10.78;100.00
33454;BME280;39400;49.744;7.012;2023-03-30T07:33:04;95348.44;;;10.84;100.00
33454;BME280;39400;49.744;7.012;2023-03-30T07:35:30;95353.03;;;10.91;100.00
33454;BME280;39400;49.744;7.012;2023-03-30T07:37:57;95349.91;;;10.92;100.00
33454;BME280;39400;49.744;7.012;2023-03-30T07:40:23;95365.63;;;10.92;100.00
33454;BME280;39400;49.744;7.012;2023-03-30T07:42:48;95365.66;;;10.88;100.00
33454;BME280;39400;49.744;7.012;2023-03-30T07:45:14;95360.97;;;10.85;100.00
33454;BME280;39400;49.744;7.012;2023-03-30T07:47:39;95337.47;;;10.77;100.00
33454;BME280;39400;49.744;7.012;2023-03-30T07:50:05;95341.44;;;10.76;100.00
33454;BME280;39400;49.744;7.012;2023-03-30T07:52:32;95354.41;;;10.76;100.00
33454;BME280;39400;49.744;7.012;2023-03-30T07:55:00;95360.31;;;10.74;100.00
33454;BME280;39400;49.744;7.012;2023-03-30T07:57:58;95362.66;;;10.76;100.00
33454;BME280;39400;49.744;7.012;2023-03-30T08:00:24;95361.09;;;10.75;100.00
33454;BME280;39400;49.744;7.012;2023-03-30T08:03:24;95359.94;;;10.72;100.00
33454;BME280;39400;49.744;7.012;2023-03-30T08:05:53;95372.13;;;10.71;100.00
33454;BME280;39400;49.744;7.012;2023-03-30T08:08:21;95376.06;;;10.70;100.00
33454;BME280;39400;49.744;7.012;2023-03-30T08:10:47;95378.84;;;10.66;100.00
33454;BME280;39400;49.744;7.012;2023-03-30T08:13:12;95386.34;;;10.62;100.00
33454;BME280;39400;49.744;7.012;2023-03-30T08:15:38;95368.34;;;10.58;100.00
33454;BME280;39400;49.744;7.012;2023-03-30T08:18:03;95379.41;;;10.51;100.00
33454;BME280;39400;49.744;7.012;2023-03-30T08:20:29;95403.75;;;10.48;100.00
33454;BME280;39400;49.744;7.012;2023-03-30T08:22:54;95384.09;;;10.54;100.00
33454;BME280;39400;49.744;7.012;2023-03-30T08:25:19;95390.75;;;10.53;100.00
33454;BME280;39400;49.744;7.012;2023-03-30T08:27:45;95393.50;;;10.53;100.00
33454;BME280;39400;49.744;7.012;2023-03-30T08:30:11;95375.38;;;10.59;100.00
33454;BME280;39400;49.744;7.012;2023-03-30T08:32:36;95391.06;;;10.62;100.00
33454;BME280;39400;49.744;7.012;2023-03-30T08:35:01;95387.09;;;10.66;100.00
33454;BME280;39400;49.744;7.012;2023-03-30T08:37:27;95387.47;;;10.68;100.00
33454;BME280;39400;49.744;7.012;2023-03-30T08:39:52;95388.25;;;10.69;100.00
33454;BME280;39400;49.744;7.012;2023-03-30T08:42:36;95385.84;;;10.75;100.00
33454;BME280;39400;49.744;7.012;2023-03-30T08:45:09;95386.09;;;10.87;100.00
33454;BME280;39400;49.744;7.012;2023-03-30T08:47:38;95394.25;;;10.98;100.00
33454;BME280;39400;49.744;7.012;2023-03-30T08:50:10;95386.03;;;10.94;100.00
33454;BME280;39400;49.744;7.012;2023-03-30T08:52:37;95401.69;;;10.98;100.00
33454;BME280;39400;49.744;7.012;2023-03-30T08:55:03;95385.50;;;11.07;100.00
33454;BME280;39400;49.744;7.012;2023-03-30T09:02:36;95388.16;;;11.14;100.00
33454;BME280;39400;49.744;7.012;2023-03-30T09:05:12;95401.09;;;11.17;100.00
33454;BME280;39400;49.744;7.012;2023-03-30T09:07:46;95403.78;;;11.24;100.00
33454;BME280;39400;49.744;7.012;2023-03-30T09:10:16;95410.88;;;11.22;100.00
33454;BME280;39400;49.744;7.012;2023-03-30T09:12:47;95404.66;;;11.14;100.00
33454;BME280;39400;49.744;7.012;2023-03-30T09:15:14;95406.75;;;11.03;100.00
33454;BME280;39400;49.744;7.012;2023-03-30T09:20:17;95410.19;;;11.14;100.00
33454;BME280;39400;49.744;7.012;2023-03-30T09:22:45;95405.63;;;11.34;100.00
33454;BME280;39400;49.744;7.012;2023-03-30T09:25:17;95394.75;;;11.54;100.00
33454;BME280;39400;49.744;7.012;2023-03-30T09:28:14;95396.97;;;11.94;100.00
33454;BME280;39400;49.744;7.012;2023-03-30T09:30:48;95406.50;;;12.16;100.00
33454;BME280;39400;49.744;7.012;2023-03-30T09:33:26;95406.78;;;11.95;100.00
33454;BME280;39400;49.744;7.012;2023-03-30T09:38:31;95405.41;;;11.79;100.00
33454;BME280;39400;49.744;7.012;2023-03-30T09:41:27;95397.81;;;11.60;100.00
33454;BME280;39400;49.744;7.012;2023-03-30T09:43:58;95408.78;;;11.63;100.00
33454;BME280;39400;49.744;7.012;2023-03-30T09:46:23;95394.78;;;11.51;100.00
33454;BME280;39400;49.744;7.012;2023-03-30T09:48:49;95404.19;;;11.53;100.00
33454;BME280;39400;49.744;7.012;2023-03-30T09:51:23;95411.41;;;11.43;100.00
33454;BME280;39400;49.744;7.012;2023-03-30T09:54:00;95435.03;;;11.41;100.00
33454;BME280;39400;49.744;7.012;2023-03-30T09:58:54;95402.22;;;11.54;100.00
33454;BME280;39400;49.744;7.012;2023-03-30T10:01:20;95418.47;;;11.45;100.00
33454;BME280;39400;49.744;7.012;2023-03-30T10:04:05;95401.84;;;11.52;100.00
33454;BME280;39400;49.744;7.012;2023-03-30T10:06:36;95412.69;;;11.66;100.00
33454;BME280;39400;49.744;7.012;2023-03-30T10:09:05;95412.00;;;11.58;100.00
33454;BME280;39400;49.744;7.012;2023-03-30T10:11:40;95414.50;;;11.46;100.00
33454;BME280;39400;49.744;7.012;2023-03-30T10:16:42;95410.03;;;11.25;100.00
33454;BME280;39400;49.744;7.012;2023-03-30T10:19:16;95414.91;;;11.13;100.00
33454;BME280;39400;49.744;7.012;2023-03-30T10:21:44;95426.59;;;11.21;100.00
33454;BME280;39400;49.744;7.012;2023-03-30T10:24:19;95417.91;;;11.26;100.00
33454;BME280;39400;49.744;7.012;2023-03-30T10:26:45;95419.38;;;11.34;100.00
33454;BME280;39400;49.744;7.012;2023-03-30T10:29:15;95409.53;;;11.37;100.00
33454;BME280;39400;49.744;7.012;2023-03-30T10:31:43;95401.63;;;11.70;100.00
33454;BME280;39400;49.744;7.012;2023-03-30T10:34:18;95391.75;;;12.03;100.00
33454;BME280;39400;49.744;7.012;2023-03-30T10:36:46;95394.53;;;12.26;100.00
33454;BME280;39400;49.744;7.012;2023-03-30T10:39:18;95389.06;;;12.46;100.00
33454;BME280;39400;49.744;7.012;2023-03-30T10:41:46;95390.16;;;12.76;100.00
33454;BME280;39400;49.744;7.012;2023-03-30T10:44:17;95399.50;;;13.02;100.00
33454;BME280;39400;49.744;7.012;2023-03-30T10:46:43;95379.84;;;13.00;100.00
33454;BME280;39400;49.744;7.012;2023-03-30T10:49:49;95386.78;;;13.08;100.00
33454;BME280;39400;49.744;7.012;2023-03-30T10:52:21;95385.72;;;13.22;100.00
33454;BME280;39400;49.744;7.012;2023-03-30T10:55:00;95379.56;;;13.14;100.00
33454;BME280;39400;49.744;7.012;2023-03-30T10:57:38;95380.00;;;13.32;100.00
33454;BME280;39400;49.744;7.012;2023-03-30T11:00:20;95379.56;;;13.14;100.00
33454;BME280;39400;49.744;7.012;2023-03-30T11:03:23;95386.63;;;13.15;100.00
33454;BME280;39400;49.744;7.012;2023-03-30T11:05:51;95379.06;;;13.19;100.00
33454;BME280;39400;49.744;7.012;2023-03-30T11:08:22;95386.28;;;12.93;100.00
33454;BME280;39400;49.744;7.012;2023-03-30T11:10:53;95389.31;;;12.79;100.00
33454;BME280;39400;49.744;7.012;2023-03-30T11:13:27;95390.81;;;13.03;100.00
33454;BME280;39400;49.744;7.012;2023-03-30T11:15:58;95376.09;;;13.10;100.00
33454;BME280;39400;49.744;7.012;2023-03-30T11:18:32;95384.38;;;13.10;100.00
33454;BME280;39400;49.744;7.012;2023-03-30T11:21:04;95379.31;;;13.28;100.00
33454;BME280;39400;49.744;7.012;2023-03-30T11:26:05;95371.34;;;13.50;100.00
33454;BME280;39400;49.744;7.012;2023-03-30T11:28:49;95383.25;;;13.67;100.00
33454;BME280;39400;49.744;7.012;2023-03-30T11:33:57;95389.44;;;13.35;99.37
33454;BME280;39400;49.744;7.012;2023-03-30T11:36:54;95397.78;;;13.31;98.53
33454;BME280;39400;49.744;7.012;2023-03-30T11:39:28;95397.50;;;12.82;97.69
33454;BME280;39400;49.744;7.012;2023-03-30T11:44:35;95421.13;;;11.82;100.00
33454;BME280;39400;49.744;7.012;2023-03-30T11:47:16;95418.59;;;11.34;100.00
33454;BME280;39400;49.744;7.012;2023-03-30T11:57:46;95404.41;;;11.35;100.00
33454;BME280;39400;49.744;7.012;2023-03-30T12:00:42;95399.91;;;11.79;100.00
33454;BME280;39400;49.744;7.012;2023-03-30T12:03:16;95411.16;;;12.19;100.00
33454;BME280;39400;49.744;7.012;2023-03-30T12:05:52;95422.69;;;12.37;100.00
33454;BME280;39400;49.744;7.012;2023-03-30T12:08:52;95408.19;;;12.33;100.00
33454;BME280;39400;49.744;7.012;2023-03-30T12:14:01;95393.91;;;12.15;100.00
33454;BME280;39400;49.744;7.012;2023-03-30T12:16:40;95409.56;;;11.95;100.00
33454;BME280;39400;49.744;7.012;2023-03-30T12:22:00;95412.34;;;10.95;100.00
33454;BME280;39400;49.744;7.012;2023-03-30T12:24:34;95415.16;;;10.88;100.00
33454;BME280;39400;49.744;7.012;2023-03-30T12:27:02;95412.78;;;10.90;100.00
33454;BME280;39400;49.744;7.012;2023-03-30T12:29:46;95406.13;;;11.22;100.00
33454;BME280;39400;49.744;7.012;2023-03-30T12:32:26;95410.75;;;11.63;100.00
33454;BME280;39400;49.744;7.012;2023-03-30T12:34:52;95406.34;;;12.00;100.00
33454;BME280;39400;49.744;7.012;2023-03-30T12:39:57;95404.59;;;12.36;100.00
33454;BME280;39400;49.744;7.012;2023-03-30T12:42:29;95398.19;;;12.67;100.00
33454;BME280;39400;49.744;7.012;2023-03-30T12:59:32;95432.91;;;11.18;100.00
33454;BME280;39400;49.744;7.012;2023-03-30T13:04:33;95415.47;;;10.56;100.00
33454;BME280;39400;49.744;7.012;2023-03-30T13:07:05;95415.91;;;10.92;100.00
33454;BME280;39400;49.744;7.012;2023-03-30T13:09:35;95415.25;;;11.50;100.00
33454;BME280;39400;49.744;7.012;2023-03-30T13:12:37;95417.16;;;11.83;100.00
33454;BME280;39400;49.744;7.012;2023-03-30T13:20:36;95401.91;;;12.56;100.00
33454;BME280;39400;49.744;7.012;2023-03-30T13:26:19;95406.88;;;12.42;100.00
33454;BME280;39400;49.744;7.012;2023-03-30T13:28:54;95392.50;;;12.54;100.00
33454;BME280;39400;49.744;7.012;2023-03-30T13:34:16;95384.91;;;12.81;100.00
33454;BME280;39400;49.744;7.012;2023-03-30T13:36:53;95379.72;;;13.07;100.00
33454;BME280;39400;49.744;7.012;2023-03-30T13:42:09;95389.78;;;13.17;99.21
33454;BME280;39400;49.744;7.012;2023-03-30T13:52:48;95423.28;;;12.96;91.38
33454;BME280;39400;49.744;7.012;2023-03-30T13:55:37;95400.88;;;13.14;94.26
33454;BME280;39400;49.744;7.012;2023-03-30T13:58:30;95417.38;;;13.17;95.18
33454;BME280;39400;49.744;7.012;2023-03-30T14:01:09;95408.09;;;13.67;93.69
33454;BME280;39400;49.744;7.012;2023-03-30T14:03:56;95412.16;;;13.43;88.81
33454;BME280;39400;49.744;7.012;2023-03-30T14:06:24;95415.03;;;13.16;90.11
33454;BME280;39400;49.744;7.012;2023-03-30T14:08:58;95407.19;;;13.14;87.89
33454;BME280;39400;49.744;7.012;2023-03-30T14:11:32;95407.47;;;12.76;88.23
33454;BME280;39400;49.744;7.012;2023-03-30T14:14:00;95395.19;;;12.57;91.54
33454;BME280;39400;49.744;7.012;2023-03-30T14:16:27;95403.75;;;12.40;92.82
33454;BME280;39400;49.744;7.012;2023-03-30T14:19:08;95400.75;;;12.30;93.81
33454;BME280;39400;49.744;7.012;2023-03-30T14:21:35;95433.13;;;12.26;95.65
33454;BME280;39400;49.744;7.012;2023-03-30T14:24:02;95414.41;;;12.14;100.00
33454;BME280;39400;49.744;7.012;2023-03-30T14:26:28;95419.63;;;12.05;100.00
33454;BME280;39400;49.744;7.012;2023-03-30T14:28:56;95418.91;;;11.70;100.00
33454;BME280;39400;49.744;7.012;2023-03-30T14:31:21;95426.44;;;11.35;100.00
33454;BME280;39400;49.744;7.012;2023-03-30T14:33:47;95431.50;;;11.06;100.00
33454;BME280;39400;49.744;7.012;2023-03-30T14:36:14;95430.88;;;10.91;100.00
33454;BME280;39400;49.744;7.012;2023-03-30T14:38:45;95427.06;;;10.78;100.00
33454;BME280;39400;49.744;7.012;2023-03-30T14:41:19;95430.22;;;10.73;100.00
33454;BME280;39400;49.744;7.012;2023-03-30T14:43:51;95454.41;;;10.51;100.00
33454;BME280;39400;49.744;7.012;2023-03-30T14:46:18;95476.94;;;10.24;100.00
33454;BME280;39400;49.744;7.012;2023-03-30T14:48:47;95481.66;;;10.28;100.00
33454;BME280;39400;49.744;7.012;2023-03-30T14:51:35;95473.75;;;10.37;100.00
33454;BME280;39400;49.744;7.012;2023-03-30T14:54:01;95477.28;;;10.37;100.00
33454;BME280;39400;49.744;7.012;2023-03-30T14:56:27;95463.88;;;10.46;100.00
33454;BME280;39400;49.744;7.012;2023-03-30T14:58:54;95463.69;;;11.78;100.00
33454;BME280;39400;49.744;7.012;2023-03-30T15:01:28;95457.84;;;13.27;100.00
33454;BME280;39400;49.744;7.012;2023-03-30T15:03:58;95449.25;;;14.87;100.00
33454;BME280;39400;49.744;7.012;2023-03-30T15:06:27;95442.19;;;15.15;100.00
33454;BME280;39400;49.744;7.012;2023-03-30T15:08:59;95440.63;;;17.69;91.94
33454;BME280;39400;49.744;7.012;2023-03-30T15:11:26;95427.19;;;17.68;88.43
33454;BME280;39400;49.744;7.012;2023-03-30T15:13:55;95423.72;;;18.79;81.13
33454;BME280;39400;49.744;7.012;2023-03-30T15:16:22;95422.56;;;19.17;75.08
33454;BME280;39400;49.744;7.012;2023-03-30T15:18:51;95418.22;;;19.53;73.31
33454;BME280;39400;49.744;7.012;2023-03-30T15:21:17;95415.41;;;19.07;72.97